sensor_id;sensor_type;location;lat;lon;timestamp;temperature;humidity
45044;DHT22;30784;48.490;9.688;2023-05-20T00:00:59;15.60;54.50
45044;DHT22;30784;48.490;9.688;2023-05-20T00:03:24;15.60;54.50
45044;DHT22;30784;48.490;9.688;2023-05-20T00:05:50;15.60;54.50
45044;DHT22;30784;48.490;9.688;2023-05-20T00:08:17;15.60;54.60
45044;DHT22;30784;48.490;9.688;2023-05-20T00:10:43;15.60;55.20
45044;DHT22;30784;48.490;9.688;2023-05-20T00:13:09;15.60;54.70
45044;DHT22;30784;48.490;9.688;2023-05-20T00:15:34;15.60;54.80
45044;DHT22;30784;48.490;9.688;2023-05-20T00:18:03;15.60;54.80
45044;DHT22;30784;48.490;9.688;2023-05-20T00:20:29;15.60;54.90
45044;DHT22;30784;48.490;9.688;2023-05-20T00:22:55;15.60;55.10
45044;DHT22;30784;48.490;9.688;2023-05-20T00:25:20;15.60;55.00
45044;DHT22;30784;48.490;9.688;2023-05-20T00:27:46;15.60;55.10
45044;DHT22;30784;48.490;9.688;2023-05-20T00:30:11;15.60;55.00
45044;DHT22;30784;48.490;9.688;2023-05-20T00:32:37;15.60;55.20
45044;DHT22;30784;48.490;9.688;2023-05-20T00:35:03;15.60;55.70
45044;DHT22;30784;48.490;9.688;2023-05-20T00:37:29;15.60;55.30
45044;DHT22;30784;48.490;9.688;2023-05-20T00:39:55;15.60;55.80
45044;DHT22;30784;48.490;9.688;2023-05-20T00:42:25;15.60;55.40
45044;DHT22;30784;48.490;9.688;2023-05-20T00:44:51;15.60;55.40
45044;DHT22;30784;48.490;9.688;2023-05-20T00:47:17;15.60;54.70
45044;DHT22;30784;48.490;9.688;2023-05-20T00:49:44;15.60;55.30
45044;DHT22;30784;48.490;9.688;2023-05-20T00:52:13;15.60;55.40
45044;DHT22;30784;48.490;9.688;2023-05-20T00:54:40;15.60;55.50
45044;DHT22;30784;48.490;9.688;2023-05-20T00:57:06;15.60;55.60
45044;DHT22;30784;48.490;9.688;2023-05-20T00:59:36;15.60;55.80
45044;DHT22;30784;48.490;9.688;2023-05-20T01:02:03;15.60;55.90
45044;DHT22;30784;48.490;9.688;2023-05-20T01:04:29;15.60;55.80
45044;DHT22;30784;48.490;9.688;2023-05-20T01:06:58;15.50;55.80
45044;DHT22;30784;48.490;9.688;2023-05-20T01:09:25;15.50;56.00
45044;DHT22;30784;48.490;9.688;2023-05-20T01:12:06;15.60;55.30
45044;DHT22;30784;48.490;9.688;2023-05-20T01:14:57;15.60;55.80
45044;DHT22;30784;48.490;9.688;2023-05-20T01:17:30;15.60;55.70
45044;DHT22;30784;48.490;9.688;2023-05-20T01:19:58;15.50;56.10
45044;DHT22;30784;48.490;9.688;2023-05-20T01:22:26;15.60;56.10
45044;DHT22;30784;48.490;9.688;2023-05-20T01:24:51;15.50;56.20
45044;DHT22;30784;48.490;9.688;2023-05-20T01:27:19;15.50;56.30
45044;DHT22;30784;48.490;9.688;2023-05-20T01:29:49;15.50;56.50
45044;DHT22;30784;48.490;9.688;2023-05-20T01:32:23;15.50;56.50
45044;DHT22;30784;48.490;9.688;2023-05-20T01:34:51;15.50;56.60
45044;DHT22;30784;48.490;9.688;2023-05-20T01:37:18;15.50;56.60
45044;DHT22;30784;48.490;9.688;2023-05-20T01:39:45;15.50;56.60
45044;DHT22;30784;48.490;9.688;2023-05-20T01:42:12;15.50;56.60
45044;DHT22;30784;48.490;9.688;2023-05-20T01:44:39;15.50;56.80
45044;DHT22;30784;48.490;9.688;2023-05-20T01:47:06;15.50;56.70
45044;DHT22;30784;48.490;9.688;2023-05-20T01:49:31;15.50;57.00
45044;DHT22;30784;48.490;9.688;2023-05-20T01:51:57;15.50;57.00
45044;DHT22;30784;48.490;9.688;2023-05-20T01:54:26;15.40;56.90
45044;DHT22;30784;48.490;9.688;2023-05-20T01:56:51;15.50;57.00
45044;DHT22;30784;48.490;9.688;2023-05-20T01:59:17;15.50;57.10
45044;DHT22;30784;48.490;9.688;2023-05-20T02:01:43;15.50;57.70
45044;DHT22;30784;48.490;9.688;2023-05-20T02:04:08;15.50;57.20
45044;DHT22;30784;48.490;9.688;2023-05-20T02:06:34;15.50;57.30
45044;DHT22;30784;48.490;9.688;2023-05-20T02:08:59;15.50;57.40
45044;DHT22;30784;48.490;9.688;2023-05-20T02:11:25;15.50;57.40
45044;DHT22;30784;48.490;9.688;2023-05-20T02:13:51;15.50;57.60
45044;DHT22;30784;48.490;9.688;2023-05-20T02:16:17;15.40;57.50
45044;DHT22;30784;48.490;9.688;2023-05-20T02:18:42;15.40;57.60
45044;DHT22;30784;48.490;9.688;2023-05-20T02:21:08;15.40;57.70
45044;DHT22;30784;48.490;9.688;2023-05-20T02:23:34;15.40;57.70
45044;DHT22;30784;48.490;9.688;2023-05-20T02:26:00;15.40;57.80
45044;DHT22;30784;48.490;9.688;2023-05-20T02:28:26;15.40;57.90
45044;DHT22;30784;48.490;9.688;2023-05-20T02:30:52;15.40;58.00
45044;DHT22;30784;48.490;9.688;2023-05-20T02:33:18;15.40;58.20
45044;DHT22;30784;48.490;9.688;2023-05-20T02:35:44;15.40;58.10
45044;DHT22;30784;48.490;9.688;2023-05-20T02:38:11;15.30;58.00
45044;DHT22;30784;48.490;9.688;2023-05-20T02:40:36;15.40;58.20
45044;DHT22;30784;48.490;9.688;2023-05-20T02:43:02;15.30;58.20
45044;DHT22;30784;48.490;9.688;2023-05-20T02:45:27;15.30;58.20
45044;DHT22;30784;48.490;9.688;2023-05-20T02:47:53;15.30;58.40
45044;DHT22;30784;48.490;9.688;2023-05-20T02:50:19;15.30;58.40
45044;DHT22;30784;48.490;9.688;2023-05-20T02:52:44;15.30;58.40
45044;DHT22;30784;48.490;9.688;2023-05-20T02:55:10;15.30;59.00
45044;DHT22;30784;48.490;9.688;2023-05-20T02:57:36;15.30;58.50
45044;DHT22;30784;48.490;9.688;2023-05-20T03:00:06;15.30;58.60
45044;DHT22;30784;48.490;9.688;2023-05-20T03:02:32;15.30;58.70
45044;DHT22;30784;48.490;9.688;2023-05-20T03:04:58;15.20;58.60
45044;DHT22;30784;48.490;9.688;2023-05-20T03:07:24;15.30;58.70
45044;DHT22;30784;48.490;9.688;2023-05-20T03:09:50;15.20;58.70
45044;DHT22;30784;48.490;9.688;2023-05-20T03:12:16;15.30;58.80
45044;DHT22;30784;48.490;9.688;2023-05-20T03:14:41;15.30;58.80
45044;DHT22;30784;48.490;9.688;2023-05-20T03:17:08;15.30;58.70
45044;DHT22;30784;48.490;9.688;2023-05-20T03:19:34;15.30;58.80
45044;DHT22;30784;48.490;9.688;2023-05-20T03:22:00;15.30;58.80
45044;DHT22;30784;48.490;9.688;2023-05-20T03:24:26;15.20;58.80
45044;DHT22;30784;48.490;9.688;2023-05-20T03:26:51;15.30;58.80
45044;DHT22;30784;48.490;9.688;2023-05-20T03:29:17;15.20;58.80
45044;DHT22;30784;48.490;9.688;2023-05-20T03:31:42;15.30;58.80
45044;DHT22;30784;48.490;9.688;2023-05-20T03:34:08;15.20;58.80
45044;DHT22;30784;48.490;9.688;2023-05-20T03:36:34;15.30;58.90
45044;DHT22;30784;48.490;9.688;2023-05-20T03:38:59;15.30;58.80
45044;DHT22;30784;48.490;9.688;2023-05-20T03:41:26;15.30;58.90
45044;DHT22;30784;48.490;9.688;2023-05-20T03:43:52;15.30;58.90
45044;DHT22;30784;48.490;9.688;2023-05-20T03:46:17;15.30;59.00
45044;DHT22;30784;48.490;9.688;2023-05-20T03:48:43;15.20;59.00
45044;DHT22;30784;48.490;9.688;2023-05-20T03:51:08;15.20;59.00
45044;DHT22;30784;48.490;9.688;2023-05-20T03:53:34;15.20;59.00
45044;DHT22;30784;48.490;9.688;2023-05-20T03:55:59;15.20;59.00
45044;DHT22;30784;48.490;9.688;2023-05-20T03:58:25;15.20;59.00
45044;DHT22;30784;48.490;9.688;2023-05-20T04:00:53;15.20;59.10
45044;DHT22;30784;48.490;9.688;2023-05-20T04:03:19;15.20;59.10
45044;DHT22;30784;48.490;9.688;2023-05-20T04:05:45;15.20;59.20
45044;DHT22;30784;48.490;9.688;2023-05-20T04:08:10;15.20;59.20
45044;DHT22;30784;48.490;9.688;2023-05-20T04:10:40;15.10;59.20
45044;DHT22;30784;48.490;9.688;2023-05-20T04:13:07;15.10;59.30
45044;DHT22;30784;48.490;9.688;2023-05-20T04:15:34;15.10;59.40
45044;DHT22;30784;48.490;9.688;2023-05-20T04:18:00;15.10;59.30
45044;DHT22;30784;48.490;9.688;2023-05-20T04:20:26;15.10;59.30
45044;DHT22;30784;48.490;9.688;2023-05-20T04:22:51;15.10;59.40
45044;DHT22;30784;48.490;9.688;2023-05-20T04:25:18;15.10;59.50
45044;DHT22;30784;48.490;9.688;2023-05-20T04:27:44;15.10;59.50
45044;DHT22;30784;48.490;9.688;2023-05-20T04:30:10;15.10;59.60
45044;DHT22;30784;48.490;9.688;2023-05-20T04:32:36;15.10;59.70
45044;DHT22;30784;48.490;9.688;2023-05-20T04:35:01;15.10;59.60
45044;DHT22;30784;48.490;9.688;2023-05-20T04:37:27;15.10;59.80
45044;DHT22;30784;48.490;9.688;2023-05-20T04:39:53;15.10;59.80
45044;DHT22;30784;48.490;9.688;2023-05-20T04:42:19;15.10;59.80
45044;DHT22;30784;48.490;9.688;2023-05-20T04:44:46;15.10;59.80
45044;DHT22;30784;48.490;9.688;2023-05-20T04:47:13;15.10;60.00
45044;DHT22;30784;48.490;9.688;2023-05-20T04:49:38;15.00;60.00
45044;DHT22;30784;48.490;9.688;2023-05-20T04:52:04;15.00;60.00
45044;DHT22;30784;48.490;9.688;2023-05-20T04:54:31;15.00;60.10
45044;DHT22;30784;48.490;9.688;2023-05-20T04:56:57;15.00;60.10
45044;DHT22;30784;48.490;9.688;2023-05-20T04:59:23;15.00;60.30
45044;DHT22;30784;48.490;9.688;2023-05-20T05:01:48;15.00;60.20
45044;DHT22;30784;48.490;9.688;2023-05-20T05:04:14;15.00;60.30
45044;DHT22;30784;48.490;9.688;2023-05-20T05:06:39;15.00;60.20
45044;DHT22;30784;48.490;9.688;2023-05-20T05:09:05;15.00;60.30
45044;DHT22;30784;48.490;9.688;2023-05-20T05:11:31;15.00;60.20
45044;DHT22;30784;48.490;9.688;2023-05-20T05:13:56;15.00;60.30
45044;DHT22;30784;48.490;9.688;2023-05-20T05:16:22;15.00;60.40
45044;DHT22;30784;48.490;9.688;2023-05-20T05:18:47;15.00;60.40
45044;DHT22;30784;48.490;9.688;2023-05-20T05:21:13;15.00;60.50
45044;DHT22;30784;48.490;9.688;2023-05-20T05:23:38;14.90;60.60
45044;DHT22;30784;48.490;9.688;2023-05-20T05:26:04;15.00;60.70
45044;DHT22;30784;48.490;9.688;2023-05-20T05:28:29;14.90;60.60
45044;DHT22;30784;48.490;9.688;2023-05-20T05:30:55;15.00;60.70
45044;DHT22;30784;48.490;9.688;2023-05-20T05:33:21;14.90;60.70
45044;DHT22;30784;48.490;9.688;2023-05-20T05:35:47;14.90;60.70
45044;DHT22;30784;48.490;9.688;2023-05-20T05:38:12;14.90;60.70
45044;DHT22;30784;48.490;9.688;2023-05-20T05:40:38;14.90;60.80
45044;DHT22;30784;48.490;9.688;2023-05-20T05:43:03;14.90;60.90
45044;DHT22;30784;48.490;9.688;2023-05-20T05:45:29;14.90;60.90
45044;DHT22;30784;48.490;9.688;2023-05-20T05:47:55;14.90;60.90
45044;DHT22;30784;48.490;9.688;2023-05-20T05:50:20;14.90;61.00
45044;DHT22;30784;48.490;9.688;2023-05-20T05:52:46;14.90;61.00
45044;DHT22;30784;48.490;9.688;2023-05-20T05:55:11;14.90;61.10
45044;DHT22;30784;48.490;9.688;2023-05-20T05:57:37;14.90;61.20
45044;DHT22;30784;48.490;9.688;2023-05-20T06:00:03;14.90;61.10
45044;DHT22;30784;48.490;9.688;2023-05-20T06:02:29;14.90;61.10
45044;DHT22;30784;48.490;9.688;2023-05-20T06:04:54;14.90;61.20
45044;DHT22;30784;48.490;9.688;2023-05-20T06:07:21;14.90;61.20
45044;DHT22;30784;48.490;9.688;2023-05-20T06:09:47;14.90;61.10
45044;DHT22;30784;48.490;9.688;2023-05-20T06:12:12;14.90;61.00
45044;DHT22;30784;48.490;9.688;2023-05-20T06:14:38;14.90;61.00
45044;DHT22;30784;48.490;9.688;2023-05-20T06:17:04;14.90;61.00
45044;DHT22;30784;48.490;9.688;2023-05-20T06:19:30;14.90;61.00
45044;DHT22;30784;48.490;9.688;2023-05-20T06:21:56;14.90;61.10
45044;DHT22;30784;48.490;9.688;2023-05-20T06:24:23;14.90;61.20
45044;DHT22;30784;48.490;9.688;2023-05-20T06:26:48;14.90;61.00
45044;DHT22;30784;48.490;9.688;2023-05-20T06:29:15;14.90;60.90
45044;DHT22;30784;48.490;9.688;2023-05-20T06:31:40;14.90;61.00
45044;DHT22;30784;48.490;9.688;2023-05-20T06:34:06;14.90;61.00
45044;DHT22;30784;48.490;9.688;2023-05-20T06:36:32;14.90;61.10
45044;DHT22;30784;48.490;9.688;2023-05-20T06:38:57;15.00;61.10
45044;DHT22;30784;48.490;9.688;2023-05-20T06:41:23;15.00;61.10
45044;DHT22;30784;48.490;9.688;2023-05-20T06:43:48;15.00;61.20
45044;DHT22;30784;48.490;9.688;2023-05-20T06:46:14;15.00;61.00
45044;DHT22;30784;48.490;9.688;2023-05-20T06:48:39;15.10;61.00
45044;DHT22;30784;48.490;9.688;2023-05-20T06:51:07;15.10;60.90
45044;DHT22;30784;48.490;9.688;2023-05-20T06:53:33;15.20;60.80
45044;DHT22;30784;48.490;9.688;2023-05-20T06:55:59;15.20;60.80
45044;DHT22;30784;48.490;9.688;2023-05-20T06:58:25;15.20;60.70
45044;DHT22;30784;48.490;9.688;2023-05-20T07:00:50;15.30;60.60
45044;DHT22;30784;48.490;9.688;2023-05-20T07:03:16;15.30;60.50
45044;DHT22;30784;48.490;9.688;2023-05-20T07:05:41;15.30;60.40
45044;DHT22;30784;48.490;9.688;2023-05-20T07:08:07;15.30;60.40
45044;DHT22;30784;48.490;9.688;2023-05-20T07:10:33;15.20;60.40
45044;DHT22;30784;48.490;9.688;2023-05-20T07:12:59;15.30;60.60
45044;DHT22;30784;48.490;9.688;2023-05-20T07:15:24;15.30;60.40
45044;DHT22;30784;48.490;9.688;2023-05-20T07:17:50;15.30;60.30
45044;DHT22;30784;48.490;9.688;2023-05-20T07:20:16;15.20;60.80
45044;DHT22;30784;48.490;9.688;2023-05-20T07:22:41;15.20;60.30
45044;DHT22;30784;48.490;9.688;2023-05-20T07:25:08;15.20;60.40
45044;DHT22;30784;48.490;9.688;2023-05-20T07:27:34;15.20;60.50
45044;DHT22;30784;48.490;9.688;2023-05-20T07:30:00;15.20;60.50
45044;DHT22;30784;48.490;9.688;2023-05-20T07:32:25;15.20;60.40
45044;DHT22;30784;48.490;9.688;2023-05-20T07:34:51;15.20;60.20
45044;DHT22;30784;48.490;9.688;2023-05-20T07:37:16;15.20;60.20
45044;DHT22;30784;48.490;9.688;2023-05-20T07:39:42;15.20;60.30
45044;DHT22;30784;48.490;9.688;2023-05-20T07:42:07;15.20;60.30
45044;DHT22;30784;48.490;9.688;2023-05-20T07:44:33;15.20;60.40
45044;DHT22;30784;48.490;9.688;2023-05-20T07:46:59;15.30;60.30
45044;DHT22;30784;48.490;9.688;2023-05-20T07:49:25;15.30;60.10
45044;DHT22;30784;48.490;9.688;2023-05-20T07:51:51;15.30;60.00
45044;DHT22;30784;48.490;9.688;2023-05-20T07:54:16;15.30;60.10
45044;DHT22;30784;48.490;9.688;2023-05-20T07:56:42;15.20;60.10
45044;DHT22;30784;48.490;9.688;2023-05-20T07:59:07;15.30;60.20
45044;DHT22;30784;48.490;9.688;2023-05-20T08:01:33;15.20;60.20
45044;DHT22;30784;48.490;9.688;2023-05-20T08:03:59;15.30;60.40
45044;DHT22;30784;48.490;9.688;2023-05-20T08:06:24;15.30;60.40
45044;DHT22;30784;48.490;9.688;2023-05-20T08:08:50;15.30;60.50
45044;DHT22;30784;48.490;9.688;2023-05-20T08:11:18;15.40;60.60
45044;DHT22;30784;48.490;9.688;2023-05-20T08:13:43;15.40;60.60
45044;DHT22;30784;48.490;9.688;2023-05-20T08:16:09;15.40;60.50
45044;DHT22;30784;48.490;9.688;2023-05-20T08:18:35;15.50;60.50
45044;DHT22;30784;48.490;9.688;2023-05-20T08:21:02;15.60;60.50
45044;DHT22;30784;48.490;9.688;2023-05-20T08:23:27;15.70;60.50
45044;DHT22;30784;48.490;9.688;2023-05-20T08:25:53;15.70;60.40
45044;DHT22;30784;48.490;9.688;2023-05-20T08:28:19;15.80;60.20
45044;DHT22;30784;48.490;9.688;2023-05-20T08:33:13;16.00;59.60
45044;DHT22;30784;48.490;9.688;2023-05-20T08:35:39;16.00;59.90
45044;DHT22;30784;48.490;9.688;2023-05-20T08:38:05;16.20;59.80
45044;DHT22;30784;48.490;9.688;2023-05-20T08:40:33;16.20;59.60
45044;DHT22;30784;48.490;9.688;2023-05-20T08:42:59;16.30;59.50
45044;DHT22;30784;48.490;9.688;2023-05-20T08:45:26;16.40;59.40
45044;DHT22;30784;48.490;9.688;2023-05-20T08:47:54;16.40;59.30
45044;DHT22;30784;48.490;9.688;2023-05-20T08:50:20;16.50;59.10
45044;DHT22;30784;48.490;9.688;2023-05-20T08:52:47;16.60;59.10
45044;DHT22;30784;48.490;9.688;2023-05-20T08:55:24;16.60;59.00
45044;DHT22;30784;48.490;9.688;2023-05-20T08:57:54;16.70;59.10
45044;DHT22;30784;48.490;9.688;2023-05-20T09:00:20;16.70;58.70
45044;DHT22;30784;48.490;9.688;2023-05-20T09:02:48;16.80;58.50
45044;DHT22;30784;48.490;9.688;2023-05-20T09:05:13;16.90;58.30
45044;DHT22;30784;48.490;9.688;2023-05-20T09:07:39;17.00;58.30
45044;DHT22;30784;48.490;9.688;2023-05-20T09:10:07;17.00;58.30
45044;DHT22;30784;48.490;9.688;2023-05-20T09:12:33;17.10;58.90
45044;DHT22;30784;48.490;9.688;2023-05-20T09:14:59;17.20;58.30
45044;DHT22;30784;48.490;9.688;2023-05-20T09:17:24;17.30;57.90
45044;DHT22;30784;48.490;9.688;2023-05-20T09:19:51;17.40;57.80
45044;DHT22;30784;48.490;9.688;2023-05-20T09:22:24;17.50;58.00
45044;DHT22;30784;48.490;9.688;2023-05-20T09:24:50;17.60;58.40
45044;DHT22;30784;48.490;9.688;2023-05-20T09:27:17;17.80;57.80
45044;DHT22;30784;48.490;9.688;2023-05-20T09:29:42;18.00;57.70
45044;DHT22;30784;48.490;9.688;2023-05-20T09:32:11;18.30;57.50
45044;DHT22;30784;48.490;9.688;2023-05-20T09:34:37;18.40;57.20
45044;DHT22;30784;48.490;9.688;2023-05-20T09:37:05;18.60;56.70
45044;DHT22;30784;48.490;9.688;2023-05-20T09:39:35;18.80;56.40
45044;DHT22;30784;48.490;9.688;2023-05-20T09:42:15;19.00;56.10
45044;DHT22;30784;48.490;9.688;2023-05-20T09:44:43;19.30;56.20
45044;DHT22;30784;48.490;9.688;2023-05-20T09:47:10;19.40;54.90
45044;DHT22;30784;48.490;9.688;2023-05-20T09:49:36;19.70;55.20
45044;DHT22;30784;48.490;9.688;2023-05-20T09:54:28;20.10;53.00
45044;DHT22;30784;48.490;9.688;2023-05-20T09:56:57;20.30;53.30
45044;DHT22;30784;48.490;9.688;2023-05-20T09:59:24;20.50;52.20
45044;DHT22;30784;48.490;9.688;2023-05-20T10:01:51;20.60;52.10
45044;DHT22;30784;48.490;9.688;2023-05-20T10:04:18;20.80;51.70
45044;DHT22;30784;48.490;9.688;2023-05-20T10:16:12;21.50;50.60
45044;DHT22;30784;48.490;9.688;2023-05-20T10:21:17;22.00;49.40
45044;DHT22;30784;48.490;9.688;2023-05-20T10:23:43;22.20;48.40
45044;DHT22;30784;48.490;9.688;2023-05-20T10:26:09;22.40;48.10
45044;DHT22;30784;48.490;9.688;2023-05-20T10:28:36;22.60;47.90
45044;DHT22;30784;48.490;9.688;2023-05-20T10:31:13;22.80;47.10
45044;DHT22;30784;48.490;9.688;2023-05-20T10:33:41;23.00;47.10
45044;DHT22;30784;48.490;9.688;2023-05-20T10:36:07;23.20;46.10
45044;DHT22;30784;48.490;9.688;2023-05-20T10:38:33;23.40;45.70
45044;DHT22;30784;48.490;9.688;2023-05-20T10:41:07;23.50;44.60
45044;DHT22;30784;48.490;9.688;2023-05-20T10:43:33;23.60;45.00
45044;DHT22;30784;48.490;9.688;2023-05-20T10:45:59;23.80;43.30
45044;DHT22;30784;48.490;9.688;2023-05-20T10:48:31;23.80;43.00
45044;DHT22;30784;48.490;9.688;2023-05-20T10:50:59;23.80;43.70
45044;DHT22;30784;48.490;9.688;2023-05-20T10:53:29;23.90;43.10
45044;DHT22;30784;48.490;9.688;2023-05-20T10:56:02;23.80;42.60
45044;DHT22;30784;48.490;9.688;2023-05-20T10:58:36;23.80;43.00
45044;DHT22;30784;48.490;9.688;2023-05-20T11:01:02;23.80;43.20
45044;DHT22;30784;48.490;9.688;2023-05-20T11:03:28;23.80;42.80
45044;DHT22;30784;48.490;9.688;2023-05-20T11:05:54;23.80;42.40
45044;DHT22;30784;48.490;9.688;2023-05-20T11:08:20;23.80;42.80
45044;DHT22;30784;48.490;9.688;2023-05-20T11:10:46;23.80;42.50
45044;DHT22;30784;48.490;9.688;2023-05-20T11:13:12;23.80;41.90
45044;DHT22;30784;48.490;9.688;2023-05-20T11:15:41;23.70;42.20
45044;DHT22;30784;48.490;9.688;2023-05-20T11:18:06;23.70;42.00
45044;DHT22;30784;48.490;9.688;2023-05-20T11:20:32;23.70;42.70
45044;DHT22;30784;48.490;9.688;2023-05-20T11:23:01;23.70;41.90
45044;DHT22;30784;48.490;9.688;2023-05-20T11:25:30;23.70;42.10
45044;DHT22;30784;48.490;9.688;2023-05-20T11:27:57;23.80;41.90
45044;DHT22;30784;48.490;9.688;2023-05-20T11:30:23;23.80;41.50
45044;DHT22;30784;48.490;9.688;2023-05-20T11:32:57;23.70;41.50
45044;DHT22;30784;48.490;9.688;2023-05-20T11:35:24;23.70;42.00
45044;DHT22;30784;48.490;9.688;2023-05-20T11:37:59;23.70;41.30
45044;DHT22;30784;48.490;9.688;2023-05-20T11:40:26;23.60;41.30
45044;DHT22;30784;48.490;9.688;2023-05-20T11:42:56;23.60;40.70
45044;DHT22;30784;48.490;9.688;2023-05-20T11:45:22;23.50;40.80
45044;DHT22;30784;48.490;9.688;2023-05-20T11:48:08;23.40;41.00
45044;DHT22;30784;48.490;9.688;2023-05-20T11:50:39;23.30;41.50
45044;DHT22;30784;48.490;9.688;2023-05-20T11:53:06;23.20;40.90
45044;DHT22;30784;48.490;9.688;2023-05-20T11:55:33;23.20;41.30
45044;DHT22;30784;48.490;9.688;2023-05-20T11:58:00;23.10;41.50
45044;DHT22;30784;48.490;9.688;2023-05-20T12:00:27;23.00;41.60
45044;DHT22;30784;48.490;9.688;2023-05-20T12:02:53;23.00;41.50
45044;DHT22;30784;48.490;9.688;2023-05-20T12:05:18;22.90;41.60
45044;DHT22;30784;48.490;9.688;2023-05-20T12:07:44;22.80;41.50
45044;DHT22;30784;48.490;9.688;2023-05-20T12:10:10;22.80;41.60
45044;DHT22;30784;48.490;9.688;2023-05-20T12:12:36;22.80;41.90
45044;DHT22;30784;48.490;9.688;2023-05-20T12:15:03;22.70;41.80
45044;DHT22;30784;48.490;9.688;2023-05-20T12:17:29;22.80;41.80
45044;DHT22;30784;48.490;9.688;2023-05-20T12:19:55;22.70;41.80
45044;DHT22;30784;48.490;9.688;2023-05-20T12:22:20;22.70;41.90
45044;DHT22;30784;48.490;9.688;2023-05-20T12:24:46;22.70;42.10
45044;DHT22;30784;48.490;9.688;2023-05-20T12:27:11;22.60;42.50
45044;DHT22;30784;48.490;9.688;2023-05-20T12:29:37;22.60;42.80
45044;DHT22;30784;48.490;9.688;2023-05-20T12:32:03;22.70;42.40
45044;DHT22;30784;48.490;9.688;2023-05-20T12:34:28;22.70;42.40
45044;DHT22;30784;48.490;9.688;2023-05-20T12:36:54;22.70;42.30
45044;DHT22;30784;48.490;9.688;2023-05-20T12:39:20;22.70;42.10
45044;DHT22;30784;48.490;9.688;2023-05-20T12:41:45;22.80;42.30
45044;DHT22;30784;48.490;9.688;2023-05-20T12:44:11;22.90;42.50
45044;DHT22;30784;48.490;9.688;2023-05-20T12:46:36;22.90;42.20
45044;DHT22;30784;48.490;9.688;2023-05-20T12:49:02;22.90;42.20
45044;DHT22;30784;48.490;9.688;2023-05-20T12:51:28;22.90;42.50
45044;DHT22;30784;48.490;9.688;2023-05-20T12:53:54;23.00;42.60
45044;DHT22;30784;48.490;9.688;2023-05-20T12:56:19;23.00;42.30
45044;DHT22;30784;48.490;9.688;2023-05-20T12:58:45;23.10;41.90
45044;DHT22;30784;48.490;9.688;2023-05-20T13:01:11;23.10;41.90
45044;DHT22;30784;48.490;9.688;2023-05-20T13:03:36;23.20;41.90
45044;DHT22;30784;48.490;9.688;2023-05-20T13:06:02;23.20;42.00
45044;DHT22;30784;48.490;9.688;2023-05-20T13:08:28;23.20;41.70
45044;DHT22;30784;48.490;9.688;2023-05-20T13:10:53;23.30;41.80
45044;DHT22;30784;48.490;9.688;2023-05-20T13:13:19;23.30;41.50
45044;DHT22;30784;48.490;9.688;2023-05-20T13:15:47;23.30;41.30
45044;DHT22;30784;48.490;9.688;2023-05-20T13:18:14;23.30;41.50
45044;DHT22;30784;48.490;9.688;2023-05-20T13:20:43;23.30;41.40
45044;DHT22;30784;48.490;9.688;2023-05-20T13:23:09;23.30;41.20
45044;DHT22;30784;48.490;9.688;2023-05-20T13:25:35;23.30;41.30
45044;DHT22;30784;48.490;9.688;2023-05-20T13:28:02;23.20;41.40
45044;DHT22;30784;48.490;9.688;2023-05-20T13:30:27;23.20;41.30
45044;DHT22;30784;48.490;9.688;2023-05-20T13:32:53;23.20;41.30
45044;DHT22;30784;48.490;9.688;2023-05-20T13:35:18;23.10;41.30
45044;DHT22;30784;48.490;9.688;2023-05-20T13:37:44;23.10;41.30
45044;DHT22;30784;48.490;9.688;2023-05-20T13:40:10;23.10;41.40
45044;DHT22;30784;48.490;9.688;2023-05-20T13:42:36;23.10;41.70
45044;DHT22;30784;48.490;9.688;2023-05-20T13:45:01;23.10;41.90
45044;DHT22;30784;48.490;9.688;2023-05-20T13:47:27;23.00;41.90
45044;DHT22;30784;48.490;9.688;2023-05-20T13:49:52;23.10;42.00
45044;DHT22;30784;48.490;9.688;2023-05-20T13:52:18;23.10;41.90
45044;DHT22;30784;48.490;9.688;2023-05-20T13:54:43;23.10;42.00
45044;DHT22;30784;48.490;9.688;2023-05-20T13:57:11;23.10;42.20
45044;DHT22;30784;48.490;9.688;2023-05-20T13:59:37;23.10;42.20
45044;DHT22;30784;48.490;9.688;2023-05-20T14:02:03;23.10;42.30
45044;DHT22;30784;48.490;9.688;2023-05-20T14:04:28;23.10;42.40
45044;DHT22;30784;48.490;9.688;2023-05-20T14:06:55;23.10;42.50
45044;DHT22;30784;48.490;9.688;2023-05-20T14:09:21;23.10;42.60
45044;DHT22;30784;48.490;9.688;2023-05-20T14:11:46;23.10;42.70
45044;DHT22;30784;48.490;9.688;2023-05-20T14:14:12;23.20;42.50
45044;DHT22;30784;48.490;9.688;2023-05-20T14:16:37;23.30;42.70
45044;DHT22;30784;48.490;9.688;2023-05-20T14:19:03;23.40;42.30
45044;DHT22;30784;48.490;9.688;2023-05-20T14:21:29;23.50;42.50
45044;DHT22;30784;48.490;9.688;2023-05-20T14:23:57;23.60;41.90
45044;DHT22;30784;48.490;9.688;2023-05-20T14:26:23;23.70;41.50
45044;DHT22;30784;48.490;9.688;2023-05-20T14:28:48;23.80;41.50
45044;DHT22;30784;48.490;9.688;2023-05-20T14:31:14;23.80;41.20
45044;DHT22;30784;48.490;9.688;2023-05-20T14:33:39;23.90;41.30
45044;DHT22;30784;48.490;9.688;2023-05-20T14:36:05;24.00;41.30
45044;DHT22;30784;48.490;9.688;2023-05-20T14:38:31;24.00;41.30
45044;DHT22;30784;48.490;9.688;2023-05-20T14:40:57;24.10;41.20
45044;DHT22;30784;48.490;9.688;2023-05-20T14:43:22;24.20;41.00
45044;DHT22;30784;48.490;9.688;2023-05-20T14:45:48;24.30;40.70
45044;DHT22;30784;48.490;9.688;2023-05-20T14:48:13;24.40;40.60
45044;DHT22;30784;48.490;9.688;2023-05-20T14:50:39;24.60;40.40
45044;DHT22;30784;48.490;9.688;2023-05-20T14:53:04;24.60;40.50
45044;DHT22;30784;48.490;9.688;2023-05-20T14:55:30;24.70;40.40
45044;DHT22;30784;48.490;9.688;2023-05-20T14:57:56;24.90;40.20
45044;DHT22;30784;48.490;9.688;2023-05-20T15:02:47;25.00;39.30
45044;DHT22;30784;48.490;9.688;2023-05-20T15:05:13;25.20;39.90
45044;DHT22;30784;48.490;9.688;2023-05-20T15:07:39;25.20;39.70
45044;DHT22;30784;48.490;9.688;2023-05-20T15:10:04;25.30;39.20
45044;DHT22;30784;48.490;9.688;2023-05-20T15:12:30;25.40;39.20
45044;DHT22;30784;48.490;9.688;2023-05-20T15:14:56;25.50;39.40
45044;DHT22;30784;48.490;9.688;2023-05-20T15:17:21;25.60;38.80
45044;DHT22;30784;48.490;9.688;2023-05-20T15:19:47;25.60;38.10
45044;DHT22;30784;48.490;9.688;2023-05-20T15:22:12;25.60;38.20
45044;DHT22;30784;48.490;9.688;2023-05-20T15:24:38;25.50;37.60
45044;DHT22;30784;48.490;9.688;2023-05-20T15:27:03;25.50;37.60
45044;DHT22;30784;48.490;9.688;2023-05-20T15:29:29;25.40;37.60
45044;DHT22;30784;48.490;9.688;2023-05-20T15:31:55;25.40;37.60
45044;DHT22;30784;48.490;9.688;2023-05-20T15:34:20;25.30;37.90
45044;DHT22;30784;48.490;9.688;2023-05-20T15:36:46;25.20;38.00
45044;DHT22;30784;48.490;9.688;2023-05-20T15:39:11;25.20;37.90
45044;DHT22;30784;48.490;9.688;2023-05-20T15:41:37;25.20;37.90
45044;DHT22;30784;48.490;9.688;2023-05-20T15:44:03;25.20;37.80